createdAt,value
2019-05-06T00:00:56.659Z,0.00
2019-05-06T00:01:46.481Z,0.00
2019-05-06T00:02:46.455Z,0.00
2019-05-06T00:03:46.431Z,0.00
2019-05-06T00:04:46.415Z,0.00
2019-05-06T00:05:46.395Z,0.00
2019-05-06T00:06:46.373Z,0.00
2019-05-06T00:07:46.359Z,0.00
2019-05-06T00:08:46.334Z,0.00
2019-05-06T00:09:46.314Z,0.00
2019-05-06T00:10:46.298Z,0.00
2019-05-06T00:11:46.272Z,0.00
2019-05-06T00:12:46.257Z,0.00
2019-05-06T00:13:46.230Z,0.00
2019-05-06T00:14:46.218Z,0.00
2019-05-06T00:15:46.392Z,0.00
2019-05-06T00:16:46.170Z,0.00
2019-05-06T00:17:46.153Z,0.00
2019-05-06T00:18:46.146Z,0.00
2019-05-06T00:19:46.109Z,0.00
2019-05-06T00:20:46.094Z,0.00
2019-05-06T00:21:46.076Z,0.00
2019-05-06T00:23:46.633Z,0.00
2019-05-06T00:24:46.011Z,0.00
2019-05-06T00:25:45.989Z,0.00
2019-05-06T00:26:45.969Z,0.00
2019-05-06T00:27:45.943Z,0.00
2019-05-06T00:28:45.929Z,0.00
2019-05-06T00:29:46.844Z,0.00
2019-05-06T00:30:45.882Z,0.00
2019-05-06T00:31:45.861Z,0.00
2019-05-06T00:32:45.840Z,0.00
2019-05-06T00:33:45.821Z,0.00
2019-05-06T00:34:45.800Z,0.00
2019-05-06T00:35:45.781Z,0.00
2019-05-06T00:36:45.758Z,0.00
2019-05-06T00:37:46.063Z,0.00
2019-05-06T00:38:45.719Z,0.00
2019-05-06T00:39:46.033Z,0.00
2019-05-06T00:40:45.994Z,0.00
2019-05-06T00:41:45.971Z,0.00
2019-05-06T00:42:45.647Z,0.00
2019-05-06T00:43:45.616Z,0.00
2019-05-06T00:44:45.597Z,0.00
2019-05-06T00:45:45.572Z,0.00
2019-05-06T00:46:45.563Z,0.00
2019-05-06T00:47:45.848Z,0.00
2019-05-06T00:48:45.512Z,0.00
2019-05-06T00:49:45.489Z,0.00
2019-05-06T00:50:45.477Z,0.00
2019-05-06T00:51:45.455Z,0.00
2019-05-06T00:52:45.431Z,0.00
2019-05-06T00:53:45.411Z,0.00
2019-05-06T00:54:45.386Z,0.00
2019-05-06T00:55:45.369Z,0.00
2019-05-06T00:56:45.354Z,0.00
2019-05-06T00:57:45.327Z,0.00
2019-05-06T00:58:45.310Z,0.00
2019-05-06T00:59:45.290Z,0.00
2019-05-06T01:00:45.264Z,0.00
2019-05-06T01:01:45.246Z,0.00
2019-05-06T01:02:45.229Z,0.00
2019-05-06T01:03:45.204Z,0.00
2019-05-06T01:04:45.183Z,0.00
2019-05-06T01:05:45.167Z,0.00
2019-05-06T01:06:45.141Z,0.00
2019-05-06T01:07:45.125Z,0.00
2019-05-06T01:08:45.100Z,0.00
2019-05-06T01:09:45.079Z,0.00
2019-05-06T01:10:45.119Z,0.00
2019-05-06T01:11:45.037Z,0.00
2019-05-06T01:12:45.017Z,0.00
2019-05-06T01:13:44.998Z,0.00
2019-05-06T01:14:44.983Z,0.00
2019-05-06T01:15:44.961Z,0.00
2019-05-06T01:16:44.987Z,0.00
2019-05-06T01:17:44.914Z,0.00
2019-05-06T01:18:44.900Z,0.00
2019-05-06T01:19:45.793Z,0.00
2019-05-06T01:20:44.853Z,0.00
2019-05-06T01:21:44.890Z,0.00
2019-05-06T01:22:44.808Z,0.00
2019-05-06T01:23:44.789Z,0.00
2019-05-06T01:24:44.769Z,0.00
2019-05-06T01:25:44.747Z,0.00
2019-05-06T01:26:44.728Z,0.00
2019-05-06T01:27:44.704Z,0.00
2019-05-06T01:28:44.697Z,0.00
2019-05-06T01:29:44.661Z,0.00
2019-05-06T01:30:44.645Z,0.00
2019-05-06T01:31:46.181Z,0.00
2019-05-06T01:32:44.598Z,0.00
2019-05-06T01:33:45.255Z,0.00
2019-05-06T01:34:44.760Z,0.00
2019-05-06T01:35:44.540Z,0.00
2019-05-06T01:36:44.525Z,0.00
2019-05-06T01:37:44.497Z,0.00
2019-05-06T01:38:44.795Z,0.00
2019-05-06T01:39:44.462Z,0.00
2019-05-06T01:40:44.431Z,0.00
2019-05-06T01:41:44.751Z,0.00
2019-05-06T01:42:44.721Z,0.00
2019-05-06T01:43:44.374Z,0.00
2019-05-06T01:44:44.400Z,0.00
2019-05-06T01:45:44.327Z,0.00
2019-05-06T01:46:44.799Z,0.00
2019-05-06T01:47:44.290Z,0.00
2019-05-06T01:48:44.357Z,0.00
2019-05-06T01:49:44.328Z,0.00
2019-05-06T01:50:44.525Z,0.00
2019-05-06T01:51:44.205Z,0.00
2019-05-06T01:52:44.339Z,0.00
2019-05-06T01:53:44.852Z,0.00
2019-05-06T01:54:44.140Z,0.00
2019-05-06T01:55:44.124Z,0.00
2019-05-06T01:56:44.550Z,0.00
2019-05-06T01:57:44.491Z,0.00
2019-05-06T01:58:44.060Z,0.00
2019-05-06T01:59:44.424Z,0.00
2019-05-06T02:00:44.015Z,0.00
2019-05-06T02:01:57.407Z,0.00
2019-05-06T02:02:44.032Z,0.00
2019-05-06T02:03:44.364Z,0.00
2019-05-06T02:04:44.393Z,0.00
2019-05-06T02:05:44.486Z,0.00
2019-05-06T02:06:43.963Z,0.00
2019-05-06T02:07:44.231Z,0.00
2019-05-06T02:08:44.896Z,0.00
2019-05-06T02:09:44.785Z,0.00
2019-05-06T02:10:43.803Z,0.00
2019-05-06T02:11:45.155Z,0.00
2019-05-06T02:12:44.349Z,0.00
2019-05-06T02:13:44.308Z,0.00
2019-05-06T02:14:43.815Z,0.00
2019-05-06T02:15:44.944Z,0.00
2019-05-06T02:16:43.769Z,0.00
2019-05-06T02:17:44.223Z,0.00
2019-05-06T02:18:44.927Z,0.00
2019-05-06T02:19:43.908Z,0.00
2019-05-06T02:20:44.535Z,0.00
2019-05-06T02:21:43.896Z,0.00
2019-05-06T02:22:44.282Z,0.00
2019-05-06T02:23:44.173Z,0.00
2019-05-06T02:24:43.964Z,0.00
2019-05-06T02:25:44.655Z,0.00
2019-05-06T02:26:43.736Z,0.00
2019-05-06T02:27:44.547Z,0.00
2019-05-06T02:28:43.611Z,0.00
2019-05-06T02:29:43.519Z,0.00
2019-05-06T02:30:45.369Z,0.00
2019-05-06T02:31:46.058Z,0.00
2019-05-06T02:32:45.372Z,0.00
2019-05-06T02:33:44.812Z,0.00
2019-05-06T02:34:45.845Z,0.00
2019-05-06T02:35:45.431Z,0.00
2019-05-06T02:36:45.506Z,0.00
2019-05-06T02:37:46.112Z,0.00
2019-05-06T02:38:48.079Z,0.00
2019-05-06T02:39:43.979Z,0.00
2019-05-06T02:40:43.172Z,0.00
2019-05-06T02:41:43.207Z,0.00
2019-05-06T02:42:43.276Z,0.00
2019-05-06T02:43:43.593Z,0.00
2019-05-06T02:44:44.071Z,0.00
2019-05-06T02:45:43.374Z,0.00
2019-05-06T02:46:44.068Z,0.00
2019-05-06T02:47:43.152Z,0.00
2019-05-06T02:48:43.414Z,0.00
2019-05-06T02:49:44.230Z,0.00
2019-05-06T02:50:42.962Z,0.00
2019-05-06T02:51:44.259Z,0.00
2019-05-06T02:52:44.011Z,0.00
2019-05-06T02:53:43.176Z,0.00
2019-05-06T02:54:42.958Z,0.00
2019-05-06T02:55:43.177Z,0.00
2019-05-06T02:56:43.523Z,0.00
2019-05-06T02:57:44.001Z,0.00
2019-05-06T02:58:43.692Z,0.00
2019-05-06T02:59:44.186Z,0.00
2019-05-06T03:00:43.214Z,0.00
2019-05-06T03:01:43.436Z,0.00
2019-05-06T03:02:47.051Z,0.00
2019-05-06T03:03:43.651Z,0.00
2019-05-06T03:04:43.737Z,0.00
2019-05-06T03:05:43.975Z,0.00
2019-05-06T03:06:44.744Z,0.00
2019-05-06T03:07:43.496Z,0.00
2019-05-06T03:08:43.365Z,0.00
2019-05-06T03:09:44.527Z,0.00
2019-05-06T03:10:44.177Z,0.00
2019-05-06T03:11:43.793Z,0.00
2019-05-06T03:12:43.171Z,0.00
2019-05-06T03:13:43.759Z,0.00
2019-05-06T03:14:43.649Z,0.00
2019-05-06T03:15:43.367Z,0.00
2019-05-06T03:16:43.984Z,0.00
2019-05-06T03:17:43.524Z,0.00
2019-05-06T03:18:43.350Z,0.00
2019-05-06T03:19:45.763Z,0.00
2019-05-06T03:20:43.893Z,0.00
2019-05-06T03:21:44.804Z,0.00
2019-05-06T03:22:43.598Z,0.00
2019-05-06T03:23:43.758Z,4.00
2019-05-06T03:24:43.654Z,4.00
2019-05-06T03:25:43.964Z,4.00
2019-05-06T03:26:43.882Z,0.00
2019-05-06T03:27:43.837Z,0.00
2019-05-06T03:28:44.098Z,4.00
2019-05-06T03:29:44.443Z,4.00
2019-05-06T03:30:45.750Z,4.00
2019-05-06T03:31:46.409Z,4.00
2019-05-06T03:33:20.971Z,4.00
2019-05-06T03:33:59.568Z,4.00
2019-05-06T03:35:00.547Z,4.00
2019-05-06T03:35:57.650Z,8.00
2019-05-06T03:36:48.141Z,8.00
2019-05-06T03:37:44.015Z,8.00
2019-05-06T03:38:43.144Z,8.00
2019-05-06T03:39:43.342Z,12.00
2019-05-06T03:40:45.641Z,16.00
2019-05-06T03:41:43.786Z,16.00
2019-05-06T03:42:42.701Z,16.00
2019-05-06T03:43:43.446Z,20.00
2019-05-06T03:44:43.628Z,24.00
2019-05-06T03:45:42.859Z,24.00
2019-05-06T03:46:43.033Z,24.00
2019-05-06T03:47:43.361Z,32.00
2019-05-06T03:48:44.267Z,36.00
2019-05-06T03:49:42.607Z,40.00
2019-05-06T03:50:44.013Z,44.00
2019-05-06T03:51:42.979Z,48.00
2019-05-06T03:52:43.021Z,56.00
2019-05-06T03:53:43.422Z,60.00
2019-05-06T03:54:45.014Z,68.00
2019-05-06T03:55:43.725Z,80.00
2019-05-06T03:56:43.288Z,88.00
2019-05-06T03:57:42.789Z,100.00
2019-05-06T03:58:43.457Z,112.00
2019-05-06T03:59:43.597Z,124.00
2019-05-06T04:00:43.786Z,136.00
2019-05-06T04:01:42.911Z,148.00
2019-05-06T04:02:43.506Z,160.00
2019-05-06T04:03:47.544Z,176.00
2019-05-06T04:04:44.017Z,188.00
2019-05-06T04:05:43.739Z,204.00
2019-05-06T04:06:43.596Z,220.00
2019-05-06T04:07:45.500Z,236.00
2019-05-06T04:08:43.702Z,252.00
2019-05-06T04:09:44.098Z,272.00
2019-05-06T04:10:43.579Z,284.00
2019-05-06T04:11:43.277Z,304.00
2019-05-06T04:12:43.441Z,316.00
2019-05-06T04:13:43.569Z,332.00
2019-05-06T04:14:43.301Z,352.00
2019-05-06T04:15:43.080Z,368.00
2019-05-06T04:16:44.115Z,388.00
2019-05-06T04:17:43.962Z,404.00
2019-05-06T04:18:43.716Z,424.00
2019-05-06T04:19:43.578Z,444.00
2019-05-06T04:20:43.606Z,460.00
2019-05-06T04:21:43.565Z,480.00
2019-05-06T04:22:43.786Z,496.00
2019-05-06T04:23:43.472Z,516.00
2019-05-06T04:24:43.063Z,536.00
2019-05-06T04:25:43.470Z,556.00
2019-05-06T04:26:46.066Z,572.00
2019-05-06T04:27:42.970Z,588.00
2019-05-06T04:28:43.338Z,608.00
2019-05-06T04:29:42.812Z,628.00
2019-05-06T04:30:42.821Z,648.00
2019-05-06T04:31:43.373Z,668.00
2019-05-06T04:32:43.404Z,688.00
2019-05-06T04:33:40.770Z,712.00
2019-05-06T04:34:43.048Z,740.00
2019-05-06T04:35:43.021Z,760.00
2019-05-06T04:36:43.781Z,800.00
2019-05-06T04:37:42.912Z,864.00
2019-05-06T04:38:43.338Z,928.00
2019-05-06T04:39:43.286Z,976.00
2019-05-06T04:40:43.669Z,1008.00
2019-05-06T04:41:43.341Z,1056.00
2019-05-06T04:42:43.914Z,1116.00
2019-05-06T04:43:43.593Z,1188.00
2019-05-06T04:44:43.688Z,1236.00
2019-05-06T04:45:43.037Z,1260.00
2019-05-06T04:46:44.009Z,1296.00
2019-05-06T04:47:43.251Z,1332.00
2019-05-06T04:48:43.200Z,1368.00
2019-05-06T04:49:43.445Z,1412.00
2019-05-06T04:50:40.401Z,1396.00
2019-05-06T04:51:43.136Z,1320.00
2019-05-06T04:52:42.918Z,1212.00
2019-05-06T04:53:43.771Z,1088.00
2019-05-06T04:54:40.316Z,972.00
2019-05-06T04:55:43.336Z,864.00
2019-05-06T04:56:40.270Z,772.00
2019-05-06T04:57:40.253Z,720.00
2019-05-06T04:58:42.720Z,700.00
2019-05-06T04:59:43.099Z,680.00
2019-05-06T05:00:40.197Z,668.00
2019-05-06T05:01:40.171Z,620.00
2019-05-06T05:02:43.032Z,588.00
2019-05-06T05:03:42.581Z,580.00
2019-05-06T05:04:43.081Z,604.00
2019-05-06T05:05:40.084Z,620.00
2019-05-06T05:06:40.061Z,644.00
2019-05-06T05:07:42.388Z,664.00
2019-05-06T05:08:42.561Z,680.00
2019-05-06T05:09:42.806Z,688.00
2019-05-06T05:10:39.983Z,696.00
2019-05-06T05:11:42.353Z,700.00
2019-05-06T05:12:39.933Z,700.00
2019-05-06T05:13:39.916Z,700.00
2019-05-06T05:14:39.891Z,696.00
2019-05-06T05:15:41.712Z,692.00
2019-05-06T05:16:41.991Z,692.00
2019-05-06T05:17:41.995Z,684.00
2019-05-06T05:18:39.807Z,680.00
2019-05-06T05:19:39.801Z,676.00
2019-05-06T05:20:45.664Z,676.00
2019-05-06T05:21:39.740Z,676.00
2019-05-06T05:22:42.209Z,676.00
2019-05-06T05:23:39.702Z,676.00
2019-05-06T05:24:39.690Z,680.00
2019-05-06T05:25:39.664Z,684.00
2019-05-06T05:26:39.638Z,688.00
2019-05-06T05:27:39.615Z,696.00
2019-05-06T05:28:39.593Z,708.00
2019-05-06T05:29:39.576Z,720.00
2019-05-06T05:30:39.552Z,728.00
2019-05-06T05:31:39.533Z,744.00
2019-05-06T05:32:39.510Z,744.00
2019-05-06T05:33:39.491Z,752.00
2019-05-06T05:34:40.833Z,752.00
2019-05-06T05:35:39.446Z,760.00
2019-05-06T05:36:39.425Z,768.00
2019-05-06T05:37:39.406Z,788.00
2019-05-06T05:38:39.379Z,800.00
2019-05-06T05:39:39.366Z,812.00
2019-05-06T05:40:39.342Z,820.00
2019-05-06T05:41:39.318Z,832.00
2019-05-06T05:42:39.307Z,840.00
2019-05-06T05:43:39.733Z,856.00
2019-05-06T05:44:39.259Z,876.00
2019-05-06T05:45:39.237Z,888.00
2019-05-06T05:46:39.215Z,896.00
2019-05-06T05:47:39.193Z,908.00
2019-05-06T05:48:39.179Z,920.00
2019-05-06T05:49:39.154Z,932.00
2019-05-06T05:50:39.132Z,944.00
2019-05-06T05:51:39.108Z,952.00
2019-05-06T05:52:39.090Z,964.00
2019-05-06T05:53:39.068Z,972.00
2019-05-06T05:54:39.044Z,992.00
2019-05-06T05:55:39.035Z,1000.00
2019-05-06T05:56:39.005Z,1008.00
2019-05-06T05:57:38.979Z,1016.00
2019-05-06T05:58:38.962Z,1024.00
2019-05-06T05:59:38.950Z,1044.00
2019-05-06T06:00:38.930Z,1056.00
2019-05-06T06:01:38.908Z,1068.00
2019-05-06T06:02:38.875Z,1084.00
2019-05-06T06:03:38.878Z,1092.00
2019-05-06T06:04:53.429Z,1100.00
2019-05-06T06:05:38.822Z,1100.00
2019-05-06T06:06:38.788Z,1108.00
2019-05-06T06:07:38.768Z,1120.00
2019-05-06T06:08:38.747Z,1128.00
2019-05-06T06:09:38.726Z,1136.00
2019-05-06T06:10:38.705Z,1140.00
2019-05-06T06:11:38.697Z,1144.00
2019-05-06T06:12:38.667Z,1156.00
2019-05-06T06:13:38.642Z,1164.00
2019-05-06T06:14:38.627Z,1172.00
2019-05-06T06:15:38.602Z,1176.00
2019-05-06T06:16:38.600Z,1188.00
2019-05-06T06:17:38.558Z,1196.00
2019-05-06T06:18:38.539Z,1200.00
2019-05-06T06:19:38.519Z,1208.00
2019-05-06T06:20:38.507Z,1220.00
2019-05-06T06:21:38.477Z,1240.00
2019-05-06T06:22:38.455Z,1260.00
2019-05-06T06:23:38.435Z,1284.00
2019-05-06T06:24:38.414Z,1324.00
2019-05-06T06:25:38.396Z,1364.00
2019-05-06T06:26:38.367Z,1396.00
2019-05-06T06:27:38.353Z,1432.00
2019-05-06T06:28:38.327Z,1464.00
2019-05-06T06:29:38.306Z,1484.00
2019-05-06T06:30:38.294Z,1504.00
2019-05-06T06:31:38.266Z,1524.00
2019-05-06T06:32:38.251Z,1552.00
2019-05-06T06:33:38.228Z,1584.00
2019-05-06T06:34:38.207Z,1624.00
2019-05-06T06:35:38.181Z,1680.00
2019-05-06T06:36:38.163Z,1728.00
2019-05-06T06:37:38.141Z,1776.00
2019-05-06T06:38:38.122Z,1820.00
2019-05-06T06:39:38.101Z,1860.00
2019-05-06T06:40:38.077Z,1892.00
2019-05-06T06:41:38.057Z,1908.00
2019-05-06T06:42:38.039Z,1932.00
2019-05-06T06:43:38.018Z,1952.00
2019-05-06T06:44:37.995Z,1988.00
2019-05-06T06:45:37.975Z,2040.00
2019-05-06T06:46:37.956Z,2108.00
2019-05-06T06:47:37.937Z,2208.00
2019-05-06T06:48:37.917Z,2332.00
2019-05-06T06:49:37.900Z,2504.00
2019-05-06T06:50:37.878Z,2792.00
2019-05-06T06:51:37.854Z,3464.00
2019-05-06T06:52:37.833Z,4356.00
2019-05-06T06:53:37.820Z,5676.00
2019-05-06T06:54:37.801Z,7012.00
2019-05-06T06:55:37.815Z,7528.00
2019-05-06T06:56:37.757Z,7916.00
2019-05-06T06:57:37.738Z,8192.00
2019-05-06T06:58:37.716Z,8800.00
2019-05-06T06:59:37.691Z,9124.00
2019-05-06T07:00:37.674Z,9272.00
2019-05-06T07:01:37.658Z,9316.00
2019-05-06T07:02:37.643Z,9292.00
2019-05-06T07:03:37.615Z,9360.00
2019-05-06T07:04:37.591Z,9580.00
2019-05-06T07:05:37.572Z,9668.00
2019-05-06T07:06:37.553Z,9900.00
2019-05-06T07:07:43.691Z,10052.00
2019-05-06T07:08:37.943Z,10224.00
2019-05-06T07:09:37.495Z,10476.00
2019-05-06T07:10:37.490Z,10728.00
2019-05-06T07:11:37.461Z,11052.00
2019-05-06T07:12:37.437Z,11544.00
2019-05-06T07:13:37.426Z,12312.00
2019-05-06T07:14:37.720Z,12680.00
2019-05-06T07:15:37.701Z,13328.00
2019-05-06T07:16:37.364Z,14044.00
2019-05-06T07:17:37.884Z,13684.00
2019-05-06T07:18:37.332Z,13508.00
2019-05-06T07:19:37.308Z,13104.00
2019-05-06T07:20:37.289Z,12844.00
2019-05-06T07:21:37.471Z,13352.00
2019-05-06T07:22:37.262Z,12796.00
2019-05-06T07:23:37.246Z,12352.00
2019-05-06T07:24:37.220Z,12384.00
2019-05-06T07:25:37.202Z,12628.00
2019-05-06T07:26:37.183Z,12480.00
2019-05-06T07:27:37.166Z,11744.00
2019-05-06T07:28:37.147Z,11972.00
2019-05-06T07:29:37.150Z,12672.00
2019-05-06T07:30:37.122Z,12440.00
2019-05-06T07:31:37.100Z,11584.00
2019-05-06T07:32:37.076Z,11080.00
2019-05-06T07:33:37.064Z,10692.00
2019-05-06T07:34:37.045Z,10848.00
2019-05-06T07:35:40.909Z,10784.00
2019-05-06T07:36:37.006Z,10568.00
2019-05-06T07:37:36.992Z,11000.00
2019-05-06T07:38:36.976Z,11004.00
2019-05-06T07:39:36.956Z,10896.00
2019-05-06T07:40:36.939Z,10408.00
2019-05-06T07:41:36.936Z,9968.00
2019-05-06T07:42:37.125Z,9744.00
2019-05-06T07:43:37.215Z,9944.00
2019-05-06T07:44:37.081Z,10096.00
2019-05-06T07:45:36.852Z,9568.00
2019-05-06T07:46:36.842Z,9320.00
2019-05-06T07:47:36.819Z,10524.00
2019-05-06T07:48:37.128Z,9132.00
2019-05-06T07:49:36.794Z,8720.00
2019-05-06T07:50:36.783Z,8584.00
2019-05-06T07:51:36.751Z,9404.00
2019-05-06T07:52:36.739Z,12868.00
2019-05-06T07:53:36.728Z,11600.00
2019-05-06T07:54:36.713Z,56832.00
2019-05-06T07:55:36.704Z,23488.00
2019-05-06T07:56:36.981Z,19680.00
2019-05-06T07:57:36.649Z,17216.00
2019-05-06T07:58:36.703Z,17248.00
2019-05-06T07:59:36.826Z,21056.00
2019-05-06T08:00:36.813Z,16672.00
2019-05-06T08:01:37.108Z,22752.00
2019-05-06T08:02:36.597Z,20608.00
2019-05-06T08:03:36.756Z,16544.00
2019-05-06T08:24:02.757Z,23936.00
2019-05-06T08:25:03.457Z,25984.00
2019-05-06T08:26:11.610Z,35616.00
2019-05-06T08:27:02.920Z,31392.00
2019-05-06T08:28:02.311Z,30048.00
2019-05-06T08:29:02.813Z,29824.00
2019-05-06T08:30:02.431Z,24992.00
2019-05-06T08:31:02.354Z,37952.00
2019-05-06T08:32:02.964Z,16288.00
2019-05-06T08:33:02.254Z,15240.00
2019-05-06T08:34:02.660Z,15872.00
2019-05-06T08:35:03.388Z,15192.00
2019-05-06T08:36:08.883Z,13960.00
2019-05-06T08:37:02.468Z,24000.00
2019-05-06T08:38:02.406Z,12604.00
2019-05-06T08:39:02.821Z,11352.00
2019-05-06T08:40:03.343Z,10928.00
2019-05-06T08:41:02.736Z,11988.00
2019-05-06T08:42:02.698Z,12992.00
2019-05-06T08:43:02.199Z,12476.00
2019-05-06T08:44:02.653Z,88064.00
2019-05-06T08:45:02.210Z,88512.00
2019-05-06T08:46:03.243Z,26560.00
2019-05-06T08:47:02.534Z,85600.00
2019-05-06T08:48:02.972Z,84512.00
2019-05-06T08:49:03.031Z,85856.00
2019-05-06T08:50:02.450Z,82944.00
2019-05-06T08:51:02.719Z,82784.00
2019-05-06T08:52:02.437Z,85344.00
2019-05-06T08:53:04.840Z,84640.00
2019-05-06T08:54:03.032Z,82112.00
2019-05-06T08:55:04.314Z,91264.00
2019-05-06T08:56:01.972Z,89184.00
2019-05-06T08:57:02.576Z,81472.00
2019-05-06T08:58:02.953Z,83680.00
2019-05-06T08:59:02.997Z,86592.00
2019-05-06T09:00:03.417Z,87488.00
2019-05-06T09:01:02.803Z,83872.00
2019-05-06T09:02:03.144Z,90976.00
2019-05-06T09:03:04.036Z,90752.00
2019-05-06T09:04:11.853Z,82272.00
2019-05-06T09:05:02.996Z,83232.00
2019-05-06T09:06:03.160Z,83840.00
2019-05-06T09:07:02.957Z,82080.00
2019-05-06T09:08:03.223Z,81920.00
2019-05-06T09:09:02.356Z,78016.00
2019-05-06T09:10:02.635Z,79392.00
2019-05-06T09:11:03.031Z,74912.00
2019-05-06T09:12:02.668Z,71744.00
2019-05-06T09:13:01.994Z,74848.00
2019-05-06T09:14:03.367Z,84384.00
2019-05-06T09:15:03.264Z,92384.00
2019-05-06T09:16:02.512Z,80704.00
2019-05-06T09:17:02.801Z,78368.00
2019-05-06T09:18:02.997Z,68160.00
2019-05-06T09:19:04.330Z,39360.00
2019-05-06T09:20:02.675Z,13380.00
2019-05-06T09:21:02.955Z,26976.00
2019-05-06T09:22:02.516Z,27520.00
2019-05-06T09:26:02.684Z,32032.00
2019-05-06T09:27:02.837Z,8048.00
2019-05-06T09:28:02.581Z,11196.00
2019-05-06T09:29:02.235Z,8272.00
2019-05-06T09:30:02.975Z,15212.00
2019-05-06T09:31:02.222Z,42240.00
2019-05-06T09:32:01.795Z,40576.00
2019-05-06T09:33:02.650Z,39296.00
2019-05-06T09:34:02.731Z,40352.00
2019-05-06T09:35:02.945Z,42400.00
2019-05-06T09:36:02.822Z,39104.00
2019-05-06T09:37:03.419Z,33120.00
2019-05-06T09:38:02.221Z,30016.00
2019-05-06T09:39:02.278Z,22784.00
2019-05-06T09:40:02.743Z,18720.00
2019-05-06T09:41:04.793Z,16800.00
2019-05-06T09:42:02.230Z,15936.00
2019-05-06T09:43:04.492Z,15520.00
2019-05-06T09:44:02.947Z,15264.00
2019-05-06T09:45:02.358Z,13576.00
2019-05-06T09:46:02.335Z,14864.00
2019-05-06T09:47:02.372Z,14652.00
2019-05-06T09:48:03.142Z,14656.00
2019-05-06T09:49:03.145Z,15168.00
2019-05-06T09:50:02.773Z,14760.00
2019-05-06T09:51:02.922Z,14092.00
2019-05-06T09:52:02.531Z,14040.00
2019-05-06T09:53:02.479Z,13776.00
2019-05-06T09:54:03.864Z,14504.00
2019-05-06T09:55:03.260Z,15008.00
2019-05-06T09:56:03.140Z,13572.00
2019-05-06T09:57:02.395Z,13000.00
2019-05-06T09:58:03.134Z,12784.00
2019-05-06T09:59:02.198Z,13460.00
2019-05-06T10:00:04.590Z,13412.00
2019-05-06T10:01:02.670Z,11892.00
2019-05-06T10:02:00.571Z,12000.00
2019-05-06T10:03:03.010Z,12908.00
2019-05-06T10:04:03.262Z,12396.00
2019-05-06T10:05:03.316Z,13404.00
2019-05-06T10:06:02.692Z,13044.00
2019-05-06T10:07:02.555Z,12388.00
2019-05-06T10:08:03.090Z,12384.00
2019-05-06T10:09:04.402Z,12536.00
2019-05-06T10:10:00.489Z,12876.00
2019-05-06T10:11:02.908Z,12752.00
2019-05-06T10:12:02.082Z,12880.00
2019-05-06T10:13:02.541Z,12772.00
2019-05-06T10:14:02.888Z,13240.00
2019-05-06T10:15:03.269Z,12632.00
2019-05-06T10:16:02.835Z,12624.00
2019-05-06T10:17:04.199Z,14404.00
2019-05-06T10:18:04.416Z,14408.00
2019-05-06T10:19:02.451Z,10348.00
2019-05-06T10:20:02.580Z,10648.00
2019-05-06T10:21:00.375Z,11032.00
2019-05-06T10:22:00.354Z,12692.00
2019-05-06T10:23:02.769Z,12632.00
2019-05-06T10:24:02.195Z,13524.00
2019-05-06T10:25:03.370Z,12668.00
2019-05-06T10:26:04.271Z,12708.00
2019-05-06T10:27:02.491Z,12844.00
2019-05-06T10:28:02.742Z,14912.00
2019-05-06T10:29:02.325Z,11764.00
2019-05-06T10:30:03.013Z,11712.00
2019-05-06T10:31:02.037Z,11564.00
2019-05-06T10:32:00.241Z,11436.00
2019-05-06T10:33:02.114Z,10360.00
2019-05-06T10:34:02.861Z,9844.00
2019-05-06T10:35:02.656Z,9372.00
2019-05-06T10:36:02.466Z,9208.00
2019-05-06T10:37:12.518Z,9216.00
2019-05-06T10:38:00.166Z,9400.00
2019-05-06T10:39:02.120Z,10384.00
2019-05-06T10:40:02.850Z,10200.00
2019-05-06T10:41:05.127Z,10680.00
2019-05-06T10:42:00.121Z,12136.00
2019-05-06T10:43:02.615Z,10372.00
2019-05-06T10:44:00.095Z,10080.00
2019-05-06T10:45:01.876Z,9876.00
2019-05-06T10:46:01.826Z,10104.00
2019-05-06T10:47:00.056Z,9400.00
2019-05-06T10:48:02.190Z,10200.00
2019-05-06T10:49:02.434Z,10956.00
2019-05-06T10:50:02.108Z,14304.00
2019-05-06T10:51:00.010Z,10924.00
2019-05-06T10:52:02.066Z,7604.00
2019-05-06T10:53:02.525Z,6892.00
2019-05-06T10:53:59.969Z,6208.00
2019-05-06T10:54:59.957Z,5768.00
2019-05-06T10:56:02.147Z,6104.00
2019-05-06T10:57:02.144Z,8592.00
2019-05-06T10:58:02.409Z,5348.00
2019-05-06T10:59:02.292Z,5276.00
2019-05-06T10:59:59.895Z,5408.00
2019-05-06T11:00:59.881Z,5836.00
2019-05-06T11:02:05.041Z,10220.00
2019-05-06T11:02:59.856Z,5240.00
2019-05-06T11:03:59.840Z,4960.00
2019-05-06T11:05:02.550Z,4928.00
2019-05-06T11:05:59.816Z,5064.00
2019-05-06T11:06:59.802Z,5240.00
2019-05-06T11:07:59.789Z,6528.00
2019-05-06T11:08:59.777Z,5468.00
2019-05-06T11:10:02.430Z,5744.00
2019-05-06T11:11:14.496Z,6152.00
2019-05-06T11:11:59.736Z,6396.00
2019-05-06T11:12:59.724Z,6416.00
2019-05-06T11:13:59.710Z,6536.00
2019-05-06T11:14:59.695Z,7668.00
2019-05-06T11:15:59.682Z,6620.00
2019-05-06T11:16:59.669Z,6672.00
2019-05-06T11:18:04.029Z,7004.00
2019-05-06T11:18:59.641Z,6380.00
2019-05-06T11:19:59.627Z,6860.00
2019-05-06T11:20:59.614Z,5920.00
2019-05-06T11:21:59.604Z,5576.00
2019-05-06T11:23:01.925Z,5264.00
2019-05-06T11:23:59.576Z,5568.00
2019-05-06T11:24:59.564Z,4992.00
2019-05-06T11:25:59.546Z,5156.00
2019-05-06T11:26:59.538Z,5208.00
2019-05-06T11:27:59.519Z,5188.00
2019-05-06T11:28:59.506Z,5000.00
2019-05-06T11:29:59.487Z,4544.00
2019-05-06T11:30:59.473Z,4252.00
2019-05-06T11:31:59.460Z,4272.00
2019-05-06T11:32:59.447Z,4180.00
2019-05-06T11:33:59.435Z,4412.00
2019-05-06T11:34:59.433Z,4988.00
2019-05-06T11:35:59.403Z,4552.00
2019-05-06T11:36:59.385Z,4800.00
2019-05-06T11:37:59.381Z,6500.00
2019-05-06T11:38:59.359Z,7092.00
2019-05-06T11:39:59.357Z,5504.00
2019-05-06T11:40:59.335Z,6984.00
2019-05-06T11:42:22.910Z,6468.00
2019-05-06T11:42:59.301Z,8092.00
2019-05-06T11:43:59.288Z,8184.00
2019-05-06T11:44:59.273Z,5840.00
2019-05-06T11:45:59.261Z,5640.00
2019-05-06T11:46:59.248Z,5456.00
2019-05-06T11:47:59.231Z,5400.00
2019-05-06T11:48:59.223Z,5132.00
2019-05-06T11:49:59.202Z,4752.00
2019-05-06T11:50:59.189Z,4724.00
2019-05-06T11:51:59.174Z,9104.00
2019-05-06T11:52:59.170Z,6492.00
2019-05-06T11:53:59.146Z,5436.00
2019-05-06T11:54:59.138Z,7020.00
2019-05-06T11:55:59.116Z,9876.00
2019-05-06T11:56:59.102Z,6436.00
2019-05-06T11:57:59.093Z,5492.00
2019-05-06T11:58:59.074Z,5388.00
2019-05-06T11:59:59.059Z,5356.00
2019-05-06T12:00:59.042Z,5396.00
2019-05-06T12:01:59.031Z,5344.00
2019-05-06T12:02:59.013Z,5364.00
2019-05-06T12:03:59.054Z,5284.00
2019-05-06T12:04:58.989Z,5000.00
2019-05-06T12:05:58.975Z,4664.00
2019-05-06T12:07:10.284Z,4324.00
2019-05-06T12:08:04.684Z,3992.00
2019-05-06T12:08:58.930Z,3684.00
2019-05-06T12:09:58.913Z,3472.00
2019-05-06T12:10:58.918Z,3272.00
2019-05-06T12:11:58.888Z,3096.00
2019-05-06T12:12:58.879Z,2924.00
2019-05-06T12:13:58.858Z,2904.00
2019-05-06T12:14:58.847Z,3024.00
2019-05-06T12:15:58.826Z,3388.00
2019-05-06T12:16:58.817Z,3936.00
2019-05-06T12:17:58.808Z,4664.00
2019-05-06T12:18:59.957Z,7552.00
2019-05-06T12:19:58.766Z,9228.00
2019-05-06T12:21:09.024Z,10048.00
2019-05-06T12:21:58.736Z,6652.00
2019-05-06T12:22:58.729Z,6592.00
2019-05-06T12:23:58.706Z,8096.00
2019-05-06T12:24:58.690Z,8628.00
2019-05-06T12:25:58.677Z,8028.00
2019-05-06T12:26:58.663Z,7120.00
2019-05-06T12:27:58.647Z,6760.00
2019-05-06T12:28:58.631Z,7012.00
2019-05-06T12:29:58.619Z,7260.00
2019-05-06T12:30:58.604Z,6400.00
2019-05-06T12:31:58.591Z,6364.00
2019-05-06T12:32:58.575Z,6068.00
2019-05-06T12:33:58.564Z,6072.00
2019-05-06T12:34:58.551Z,6240.00
2019-05-06T12:35:58.537Z,7232.00
2019-05-06T12:36:58.520Z,6508.00
2019-05-06T12:37:58.514Z,6444.00
2019-05-06T12:38:58.497Z,6088.00
2019-05-06T12:39:58.501Z,6580.00
2019-05-06T12:41:00.036Z,5872.00
2019-05-06T12:41:58.448Z,5800.00
2019-05-06T12:42:58.431Z,5764.00
2019-05-06T12:43:58.420Z,5864.00
2019-05-06T12:44:58.404Z,6012.00
2019-05-06T12:45:58.390Z,6204.00
2019-05-06T12:47:00.062Z,6320.00
2019-05-06T12:47:58.367Z,8764.00